sensor_id;sensor_type;location;lat;lon;timestamp;P1;durP1;ratioP1;P2;durP2;ratioP2
35126;SDS011;21300;52.006;5.798;2022-11-13T00:00:29;14.20;;;7.60;;
35126;SDS011;21300;52.006;5.798;2022-11-13T00:02:55;10.73;;;7.00;;
35126;SDS011;21300;52.006;5.798;2022-11-13T00:05:21;11.82;;;7.20;;
35126;SDS011;21300;52.006;5.798;2022-11-13T00:07:47;11.93;;;7.60;;
35126;SDS011;21300;52.006;5.798;2022-11-13T00:10:12;13.60;;;8.05;;
35126;SDS011;21300;52.006;5.798;2022-11-13T00:12:38;12.10;;;7.80;;
35126;SDS011;21300;52.006;5.798;2022-11-13T00:15:03;13.05;;;7.78;;
35126;SDS011;21300;52.006;5.798;2022-11-13T00:17:29;11.40;;;7.43;;
35126;SDS011;21300;52.006;5.798;2022-11-13T00:19:55;11.23;;;7.95;;
35126;SDS011;21300;52.006;5.798;2022-11-13T00:22:20;13.35;;;7.90;;
35126;SDS011;21300;52.006;5.798;2022-11-13T00:24:46;12.13;;;7.72;;
35126;SDS011;21300;52.006;5.798;2022-11-13T00:27:11;12.32;;;7.72;;
35126;SDS011;21300;52.006;5.798;2022-11-13T00:29:37;12.52;;;8.23;;
35126;SDS011;21300;52.006;5.798;2022-11-13T00:32:03;15.13;;;8.18;;
35126;SDS011;21300;52.006;5.798;2022-11-13T00:34:28;10.45;;;7.88;;
35126;SDS011;21300;52.006;5.798;2022-11-13T00:36:54;14.40;;;7.70;;
35126;SDS011;21300;52.006;5.798;2022-11-13T00:39:20;11.52;;;7.53;;
35126;SDS011;21300;52.006;5.798;2022-11-13T00:41:45;11.68;;;8.00;;
35126;SDS011;21300;52.006;5.798;2022-11-13T00:44:11;12.55;;;7.55;;
35126;SDS011;21300;52.006;5.798;2022-11-13T00:46:37;10.98;;;7.75;;
35126;SDS011;21300;52.006;5.798;2022-11-13T00:49:02;13.02;;;8.15;;
35126;SDS011;21300;52.006;5.798;2022-11-13T00:51:28;9.43;;;6.90;;
35126;SDS011;21300;52.006;5.798;2022-11-13T00:53:53;13.05;;;7.45;;
35126;SDS011;21300;52.006;5.798;2022-11-13T00:56:19;11.18;;;7.10;;
35126;SDS011;21300;52.006;5.798;2022-11-13T00:58:45;11.70;;;7.85;;
35126;SDS011;21300;52.006;5.798;2022-11-13T01:01:12;14.68;;;9.05;;
35126;SDS011;21300;52.006;5.798;2022-11-13T01:03:39;15.43;;;8.57;;
35126;SDS011;21300;52.006;5.798;2022-11-13T01:06:24;10.73;;;7.00;;
35126;SDS011;21300;52.006;5.798;2022-11-13T01:08:54;10.95;;;7.63;;
35126;SDS011;21300;52.006;5.798;2022-11-13T01:11:22;10.82;;;7.50;;
35126;SDS011;21300;52.006;5.798;2022-11-13T01:13:49;14.10;;;7.80;;
35126;SDS011;21300;52.006;5.798;2022-11-13T01:16:16;11.45;;;7.47;;
35126;SDS011;21300;52.006;5.798;2022-11-13T01:18:44;11.88;;;7.10;;
35126;SDS011;21300;52.006;5.798;2022-11-13T01:21:11;10.95;;;7.70;;
35126;SDS011;21300;52.006;5.798;2022-11-13T01:23:39;12.75;;;7.75;;
35126;SDS011;21300;52.006;5.798;2022-11-13T01:26:09;14.05;;;7.30;;
35126;SDS011;21300;52.006;5.798;2022-11-13T01:28:54;10.70;;;7.53;;
35126;SDS011;21300;52.006;5.798;2022-11-13T01:31:22;11.68;;;7.57;;
35126;SDS011;21300;52.006;5.798;2022-11-13T01:33:50;12.07;;;7.22;;
35126;SDS011;21300;52.006;5.798;2022-11-13T01:36:17;11.13;;;6.90;;
35126;SDS011;21300;52.006;5.798;2022-11-13T01:38:45;9.90;;;6.30;;
35126;SDS011;21300;52.006;5.798;2022-11-13T01:41:15;11.32;;;7.05;;
35126;SDS011;21300;52.006;5.798;2022-11-13T01:43:45;10.65;;;6.90;;
35126;SDS011;21300;52.006;5.798;2022-11-13T01:48:58;10.02;;;6.10;;
35126;SDS011;21300;52.006;5.798;2022-11-13T01:51:27;10.27;;;6.63;;
35126;SDS011;21300;52.006;5.798;2022-11-13T01:54:00;8.90;;;6.28;;
35126;SDS011;21300;52.006;5.798;2022-11-13T01:56:28;12.10;;;6.45;;
35126;SDS011;21300;52.006;5.798;2022-11-13T01:59:00;9.90;;;6.57;;
35126;SDS011;21300;52.006;5.798;2022-11-13T02:01:35;9.95;;;5.97;;
35126;SDS011;21300;52.006;5.798;2022-11-13T02:04:01;10.75;;;6.10;;
35126;SDS011;21300;52.006;5.798;2022-11-13T02:06:27;9.90;;;5.35;;
35126;SDS011;21300;52.006;5.798;2022-11-13T02:08:59;8.32;;;5.60;;
35126;SDS011;21300;52.006;5.798;2022-11-13T02:11:25;8.05;;;5.25;;
35126;SDS011;21300;52.006;5.798;2022-11-13T02:13:51;8.48;;;5.70;;
35126;SDS011;21300;52.006;5.798;2022-11-13T02:16:16;10.68;;;5.53;;
35126;SDS011;21300;52.006;5.798;2022-11-13T02:18:43;8.10;;;5.57;;
35126;SDS011;21300;52.006;5.798;2022-11-13T02:26:55;7.45;;;4.65;;
35126;SDS011;21300;52.006;5.798;2022-11-13T02:29:25;7.90;;;5.45;;
35126;SDS011;21300;52.006;5.798;2022-11-13T02:31:50;8.73;;;5.10;;
35126;SDS011;21300;52.006;5.798;2022-11-13T02:34:16;8.82;;;5.72;;
35126;SDS011;21300;52.006;5.798;2022-11-13T02:36:41;8.13;;;5.00;;
35126;SDS011;21300;52.006;5.798;2022-11-13T02:39:08;10.88;;;5.68;;
35126;SDS011;21300;52.006;5.798;2022-11-13T02:41:36;8.52;;;5.15;;
35126;SDS011;21300;52.006;5.798;2022-11-13T02:44:02;7.63;;;5.30;;
35126;SDS011;21300;52.006;5.798;2022-11-13T02:46:29;11.18;;;5.78;;
35126;SDS011;21300;52.006;5.798;2022-11-13T02:48:54;11.20;;;5.30;;
35126;SDS011;21300;52.006;5.798;2022-11-13T02:51:20;9.20;;;5.60;;
35126;SDS011;21300;52.006;5.798;2022-11-13T02:53:46;7.90;;;5.30;;
35126;SDS011;21300;52.006;5.798;2022-11-13T02:56:11;8.88;;;5.13;;
35126;SDS011;21300;52.006;5.798;2022-11-13T02:58:37;8.63;;;5.13;;
35126;SDS011;21300;52.006;5.798;2022-11-13T03:01:03;6.47;;;5.07;;
35126;SDS011;21300;52.006;5.798;2022-11-13T03:03:28;8.07;;;4.70;;
35126;SDS011;21300;52.006;5.798;2022-11-13T03:05:54;8.13;;;5.28;;
35126;SDS011;21300;52.006;5.798;2022-11-13T03:08:20;8.70;;;5.72;;
35126;SDS011;21300;52.006;5.798;2022-11-13T03:10:48;11.77;;;6.05;;
35126;SDS011;21300;52.006;5.798;2022-11-13T03:13:13;9.05;;;5.10;;
35126;SDS011;21300;52.006;5.798;2022-11-13T03:15:39;9.05;;;5.63;;
35126;SDS011;21300;52.006;5.798;2022-11-13T03:18:05;7.63;;;5.43;;
35126;SDS011;21300;52.006;5.798;2022-11-13T03:20:31;9.52;;;5.50;;
35126;SDS011;21300;52.006;5.798;2022-11-13T03:22:59;8.90;;;5.30;;
35126;SDS011;21300;52.006;5.798;2022-11-13T03:25:25;12.60;;;6.05;;
35126;SDS011;21300;52.006;5.798;2022-11-13T03:27:50;9.48;;;6.13;;
35126;SDS011;21300;52.006;5.798;2022-11-13T03:30:16;11.98;;;5.85;;
35126;SDS011;21300;52.006;5.798;2022-11-13T03:32:41;9.07;;;5.57;;
35126;SDS011;21300;52.006;5.798;2022-11-13T03:35:07;8.25;;;5.20;;
35126;SDS011;21300;52.006;5.798;2022-11-13T03:37:33;11.73;;;5.70;;
35126;SDS011;21300;52.006;5.798;2022-11-13T03:39:58;9.00;;;5.28;;
35126;SDS011;21300;52.006;5.798;2022-11-13T03:42:24;7.63;;;5.25;;
35126;SDS011;21300;52.006;5.798;2022-11-13T03:44:49;8.27;;;5.03;;
35126;SDS011;21300;52.006;5.798;2022-11-13T03:47:15;10.02;;;5.32;;
35126;SDS011;21300;52.006;5.798;2022-11-13T03:49:40;9.48;;;5.15;;
35126;SDS011;21300;52.006;5.798;2022-11-13T03:52:06;7.32;;;5.00;;
35126;SDS011;21300;52.006;5.798;2022-11-13T03:54:31;7.10;;;4.95;;
35126;SDS011;21300;52.006;5.798;2022-11-13T03:56:57;7.50;;;5.20;;
35126;SDS011;21300;52.006;5.798;2022-11-13T03:59:22;6.20;;;4.93;;
35126;SDS011;21300;52.006;5.798;2022-11-13T04:01:48;6.68;;;4.63;;
35126;SDS011;21300;52.006;5.798;2022-11-13T04:04:14;8.95;;;5.30;;
35126;SDS011;21300;52.006;5.798;2022-11-13T04:06:39;7.28;;;4.93;;
35126;SDS011;21300;52.006;5.798;2022-11-13T04:09:05;7.05;;;5.03;;
35126;SDS011;21300;52.006;5.798;2022-11-13T04:11:31;6.65;;;5.03;;
35126;SDS011;21300;52.006;5.798;2022-11-13T04:13:57;6.97;;;4.85;;
35126;SDS011;21300;52.006;5.798;2022-11-13T04:16:23;7.50;;;5.22;;
35126;SDS011;21300;52.006;5.798;2022-11-13T04:18:49;8.13;;;5.30;;
35126;SDS011;21300;52.006;5.798;2022-11-13T04:21:15;8.57;;;5.57;;
35126;SDS011;21300;52.006;5.798;2022-11-13T04:23:40;8.63;;;5.22;;
35126;SDS011;21300;52.006;5.798;2022-11-13T04:26:06;6.82;;;5.28;;
35126;SDS011;21300;52.006;5.798;2022-11-13T04:28:32;9.40;;;5.78;;
35126;SDS011;21300;52.006;5.798;2022-11-13T04:30:57;7.45;;;5.45;;
35126;SDS011;21300;52.006;5.798;2022-11-13T04:33:23;7.28;;;4.97;;
35126;SDS011;21300;52.006;5.798;2022-11-13T04:35:48;7.00;;;5.28;;
35126;SDS011;21300;52.006;5.798;2022-11-13T04:38:14;7.95;;;5.60;;
35126;SDS011;21300;52.006;5.798;2022-11-13T04:40:40;7.30;;;5.45;;
35126;SDS011;21300;52.006;5.798;2022-11-13T04:43:06;7.22;;;5.03;;
35126;SDS011;21300;52.006;5.798;2022-11-13T04:45:31;7.45;;;5.38;;
35126;SDS011;21300;52.006;5.798;2022-11-13T04:47:58;8.18;;;5.45;;
35126;SDS011;21300;52.006;5.798;2022-11-13T04:50:23;7.55;;;4.82;;
35126;SDS011;21300;52.006;5.798;2022-11-13T04:52:49;8.38;;;5.15;;
35126;SDS011;21300;52.006;5.798;2022-11-13T04:55:15;7.68;;;5.10;;
35126;SDS011;21300;52.006;5.798;2022-11-13T04:57:40;6.32;;;4.95;;
35126;SDS011;21300;52.006;5.798;2022-11-13T05:00:07;5.75;;;4.80;;
35126;SDS011;21300;52.006;5.798;2022-11-13T05:02:34;7.28;;;4.93;;
35126;SDS011;21300;52.006;5.798;2022-11-13T05:05:00;7.55;;;4.78;;
35126;SDS011;21300;52.006;5.798;2022-11-13T05:07:25;7.63;;;5.05;;
35126;SDS011;21300;52.006;5.798;2022-11-13T05:09:51;5.75;;;4.60;;
35126;SDS011;21300;52.006;5.798;2022-11-13T05:12:17;6.60;;;4.72;;
35126;SDS011;21300;52.006;5.798;2022-11-13T05:14:43;7.38;;;4.65;;
35126;SDS011;21300;52.006;5.798;2022-11-13T05:17:10;6.28;;;4.20;;
35126;SDS011;21300;52.006;5.798;2022-11-13T05:19:36;7.07;;;4.53;;
35126;SDS011;21300;52.006;5.798;2022-11-13T05:22:02;5.32;;;3.78;;
35126;SDS011;21300;52.006;5.798;2022-11-13T05:24:28;6.30;;;4.40;;
35126;SDS011;21300;52.006;5.798;2022-11-13T05:26:54;6.65;;;4.40;;
35126;SDS011;21300;52.006;5.798;2022-11-13T05:29:20;5.00;;;3.58;;
35126;SDS011;21300;52.006;5.798;2022-11-13T05:31:46;6.47;;;4.82;;
35126;SDS011;21300;52.006;5.798;2022-11-13T05:34:11;6.38;;;4.00;;
35126;SDS011;21300;52.006;5.798;2022-11-13T05:36:37;7.50;;;3.92;;
35126;SDS011;21300;52.006;5.798;2022-11-13T05:39:03;8.95;;;4.40;;
35126;SDS011;21300;52.006;5.798;2022-11-13T05:41:28;6.32;;;3.83;;
35126;SDS011;21300;52.006;5.798;2022-11-13T05:43:54;5.53;;;3.92;;
35126;SDS011;21300;52.006;5.798;2022-11-13T05:46:21;8.27;;;4.45;;
35126;SDS011;21300;52.006;5.798;2022-11-13T05:48:52;6.75;;;4.22;;
35126;SDS011;21300;52.006;5.798;2022-11-13T05:51:21;7.38;;;4.20;;
35126;SDS011;21300;52.006;5.798;2022-11-13T05:53:48;6.30;;;4.22;;
35126;SDS011;21300;52.006;5.798;2022-11-13T05:56:16;6.15;;;4.15;;
35126;SDS011;21300;52.006;5.798;2022-11-13T05:58:47;6.00;;;4.40;;
35126;SDS011;21300;52.006;5.798;2022-11-13T06:01:17;6.43;;;4.20;;
35126;SDS011;21300;52.006;5.798;2022-11-13T06:03:45;6.25;;;3.78;;
35126;SDS011;21300;52.006;5.798;2022-11-13T06:06:15;5.97;;;4.40;;
35126;SDS011;21300;52.006;5.798;2022-11-13T06:08:42;7.40;;;4.30;;
35126;SDS011;21300;52.006;5.798;2022-11-13T06:11:10;7.55;;;3.97;;
35126;SDS011;21300;52.006;5.798;2022-11-13T06:13:37;6.80;;;3.97;;
35126;SDS011;21300;52.006;5.798;2022-11-13T06:16:11;7.10;;;4.18;;
35126;SDS011;21300;52.006;5.798;2022-11-13T06:18:41;4.60;;;3.78;;
35126;SDS011;21300;52.006;5.798;2022-11-13T06:21:09;8.98;;;4.40;;
35126;SDS011;21300;52.006;5.798;2022-11-13T06:23:37;7.60;;;3.72;;
35126;SDS011;21300;52.006;5.798;2022-11-13T06:28:34;5.72;;;4.18;;
35126;SDS011;21300;52.006;5.798;2022-11-13T06:31:04;5.20;;;4.00;;
35126;SDS011;21300;52.006;5.798;2022-11-13T06:33:31;6.68;;;4.13;;
35126;SDS011;21300;52.006;5.798;2022-11-13T06:35:59;6.40;;;4.05;;
35126;SDS011;21300;52.006;5.798;2022-11-13T06:38:28;6.65;;;4.13;;
35126;SDS011;21300;52.006;5.798;2022-11-13T06:40:57;6.85;;;3.70;;
35126;SDS011;21300;52.006;5.798;2022-11-13T06:43:23;4.93;;;3.65;;
35126;SDS011;21300;52.006;5.798;2022-11-13T06:45:48;5.82;;;3.83;;
35126;SDS011;21300;52.006;5.798;2022-11-13T06:48:14;5.72;;;3.63;;
35126;SDS011;21300;52.006;5.798;2022-11-13T06:50:39;5.05;;;4.03;;
35126;SDS011;21300;52.006;5.798;2022-11-13T06:53:05;4.82;;;3.47;;
35126;SDS011;21300;52.006;5.798;2022-11-13T06:55:30;7.72;;;3.47;;
35126;SDS011;21300;52.006;5.798;2022-11-13T06:57:56;4.88;;;3.72;;
35126;SDS011;21300;52.006;5.798;2022-11-13T07:00:22;6.13;;;3.60;;
35126;SDS011;21300;52.006;5.798;2022-11-13T07:02:47;5.05;;;3.80;;
35126;SDS011;21300;52.006;5.798;2022-11-13T07:05:14;6.55;;;3.97;;
35126;SDS011;21300;52.006;5.798;2022-11-13T07:07:40;5.63;;;4.00;;
35126;SDS011;21300;52.006;5.798;2022-11-13T07:10:05;5.85;;;4.20;;
35126;SDS011;21300;52.006;5.798;2022-11-13T07:12:31;5.85;;;3.78;;
35126;SDS011;21300;52.006;5.798;2022-11-13T07:14:57;8.02;;;4.20;;
35126;SDS011;21300;52.006;5.798;2022-11-13T07:17:23;11.18;;;7.07;;
35126;SDS011;21300;52.006;5.798;2022-11-13T07:19:48;20.20;;;13.35;;
35126;SDS011;21300;52.006;5.798;2022-11-13T07:22:14;9.52;;;5.72;;
35126;SDS011;21300;52.006;5.798;2022-11-13T07:24:39;11.60;;;6.78;;
35126;SDS011;21300;52.006;5.798;2022-11-13T07:27:06;10.75;;;7.10;;
35126;SDS011;21300;52.006;5.798;2022-11-13T07:29:32;11.27;;;6.85;;
35126;SDS011;21300;52.006;5.798;2022-11-13T07:31:59;13.95;;;9.90;;
35126;SDS011;21300;52.006;5.798;2022-11-13T07:34:25;14.45;;;11.35;;
35126;SDS011;21300;52.006;5.798;2022-11-13T07:36:50;15.20;;;11.52;;
35126;SDS011;21300;52.006;5.798;2022-11-13T07:39:16;11.63;;;9.60;;
35126;SDS011;21300;52.006;5.798;2022-11-13T07:41:41;8.90;;;4.82;;
35126;SDS011;21300;52.006;5.798;2022-11-13T07:44:07;7.57;;;5.75;;
35126;SDS011;21300;52.006;5.798;2022-11-13T07:46:32;6.68;;;5.03;;
35126;SDS011;21300;52.006;5.798;2022-11-13T07:48:58;5.93;;;4.28;;
35126;SDS011;21300;52.006;5.798;2022-11-13T07:51:23;8.88;;;4.72;;
35126;SDS011;21300;52.006;5.798;2022-11-13T07:53:49;7.88;;;4.75;;
35126;SDS011;21300;52.006;5.798;2022-11-13T07:56:14;6.88;;;4.88;;
35126;SDS011;21300;52.006;5.798;2022-11-13T07:58:40;6.30;;;4.68;;
35126;SDS011;21300;52.006;5.798;2022-11-13T08:01:06;6.03;;;4.10;;
35126;SDS011;21300;52.006;5.798;2022-11-13T08:03:31;4.65;;;3.83;;
35126;SDS011;21300;52.006;5.798;2022-11-13T08:06:00;5.45;;;4.15;;
35126;SDS011;21300;52.006;5.798;2022-11-13T08:08:30;5.97;;;3.85;;
35126;SDS011;21300;52.006;5.798;2022-11-13T08:10:56;8.40;;;4.35;;
35126;SDS011;21300;52.006;5.798;2022-11-13T08:13:22;6.93;;;5.07;;
35126;SDS011;21300;52.006;5.798;2022-11-13T08:15:48;7.57;;;4.50;;
35126;SDS011;21300;52.006;5.798;2022-11-13T08:18:13;7.15;;;4.70;;
35126;SDS011;21300;52.006;5.798;2022-11-13T08:20:39;5.55;;;4.32;;
35126;SDS011;21300;52.006;5.798;2022-11-13T08:23:04;7.45;;;5.40;;
35126;SDS011;21300;52.006;5.798;2022-11-13T08:25:31;7.22;;;5.00;;
35126;SDS011;21300;52.006;5.798;2022-11-13T08:27:57;6.40;;;4.78;;
35126;SDS011;21300;52.006;5.798;2022-11-13T08:30:24;7.30;;;4.65;;
35126;SDS011;21300;52.006;5.798;2022-11-13T08:32:51;7.60;;;5.40;;
35126;SDS011;21300;52.006;5.798;2022-11-13T08:35:17;6.00;;;4.70;;
35126;SDS011;21300;52.006;5.798;2022-11-13T08:37:43;7.25;;;4.60;;
35126;SDS011;21300;52.006;5.798;2022-11-13T08:40:27;7.35;;;5.35;;
35126;SDS011;21300;52.006;5.798;2022-11-13T08:43:00;6.50;;;5.25;;
35126;SDS011;21300;52.006;5.798;2022-11-13T08:45:27;8.00;;;5.47;;
35126;SDS011;21300;52.006;5.798;2022-11-13T08:47:53;9.90;;;4.95;;
35126;SDS011;21300;52.006;5.798;2022-11-13T08:50:23;8.20;;;5.50;;
35126;SDS011;21300;52.006;5.798;2022-11-13T08:52:52;8.10;;;5.35;;
35126;SDS011;21300;52.006;5.798;2022-11-13T08:55:19;7.75;;;5.90;;
35126;SDS011;21300;52.006;5.798;2022-11-13T08:57:45;8.07;;;6.00;;
35126;SDS011;21300;52.006;5.798;2022-11-13T09:00:11;8.93;;;5.65;;
35126;SDS011;21300;52.006;5.798;2022-11-13T09:02:37;10.68;;;7.30;;
35126;SDS011;21300;52.006;5.798;2022-11-13T09:05:02;9.35;;;6.47;;
35126;SDS011;21300;52.006;5.798;2022-11-13T09:07:28;9.15;;;7.03;;
35126;SDS011;21300;52.006;5.798;2022-11-13T09:10:12;9.35;;;6.65;;
35126;SDS011;21300;52.006;5.798;2022-11-13T09:12:38;10.48;;;6.95;;
35126;SDS011;21300;52.006;5.798;2022-11-13T09:15:04;14.82;;;8.73;;
35126;SDS011;21300;52.006;5.798;2022-11-13T09:17:30;12.27;;;8.68;;
35126;SDS011;21300;52.006;5.798;2022-11-13T09:19:56;13.32;;;8.80;;
35126;SDS011;21300;52.006;5.798;2022-11-13T09:22:22;15.55;;;8.82;;
35126;SDS011;21300;52.006;5.798;2022-11-13T09:24:47;18.10;;;10.75;;
35126;SDS011;21300;52.006;5.798;2022-11-13T09:27:13;15.23;;;10.32;;
35126;SDS011;21300;52.006;5.798;2022-11-13T09:29:39;16.75;;;10.57;;
35126;SDS011;21300;52.006;5.798;2022-11-13T09:32:04;14.75;;;9.75;;
35126;SDS011;21300;52.006;5.798;2022-11-13T09:34:30;15.15;;;10.50;;
35126;SDS011;21300;52.006;5.798;2022-11-13T09:36:57;16.45;;;10.35;;
35126;SDS011;21300;52.006;5.798;2022-11-13T09:39:23;17.13;;;9.75;;
35126;SDS011;21300;52.006;5.798;2022-11-13T09:41:52;15.75;;;9.63;;
35126;SDS011;21300;52.006;5.798;2022-11-13T09:44:27;15.37;;;9.93;;
35126;SDS011;21300;52.006;5.798;2022-11-13T09:47:16;16.35;;;9.18;;
35126;SDS011;21300;52.006;5.798;2022-11-13T09:49:46;14.95;;;9.02;;
35126;SDS011;21300;52.006;5.798;2022-11-13T09:52:17;11.77;;;7.68;;
35126;SDS011;21300;52.006;5.798;2022-11-13T09:54:46;15.27;;;7.95;;
35126;SDS011;21300;52.006;5.798;2022-11-13T09:57:31;13.18;;;6.82;;
35126;SDS011;21300;52.006;5.798;2022-11-13T10:00:18;10.05;;;5.60;;
35126;SDS011;21300;52.006;5.798;2022-11-13T10:02:56;10.15;;;6.18;;
35126;SDS011;21300;52.006;5.798;2022-11-13T10:09:09;9.50;;;6.35;;
35126;SDS011;21300;52.006;5.798;2022-11-13T10:14:22;10.93;;;6.90;;
35126;SDS011;21300;52.006;5.798;2022-11-13T10:17:21;10.50;;;6.90;;
35126;SDS011;21300;52.006;5.798;2022-11-13T10:19:55;10.18;;;6.90;;
35126;SDS011;21300;52.006;5.798;2022-11-13T10:22:40;9.98;;;6.20;;
35126;SDS011;21300;52.006;5.798;2022-11-13T10:25:20;10.57;;;7.18;;
35126;SDS011;21300;52.006;5.798;2022-11-13T10:27:55;12.60;;;6.95;;
35126;SDS011;21300;52.006;5.798;2022-11-13T10:30:22;9.00;;;6.32;;
35126;SDS011;21300;52.006;5.798;2022-11-13T10:32:48;10.02;;;6.80;;
35126;SDS011;21300;52.006;5.798;2022-11-13T10:35:18;9.07;;;6.32;;
35126;SDS011;21300;52.006;5.798;2022-11-13T10:38:03;9.00;;;5.43;;
35126;SDS011;21300;52.006;5.798;2022-11-13T10:40:38;8.07;;;4.97;;
35126;SDS011;21300;52.006;5.798;2022-11-13T10:45:42;7.97;;;5.60;;
35126;SDS011;21300;52.006;5.798;2022-11-13T10:48:24;6.82;;;4.78;;
35126;SDS011;21300;52.006;5.798;2022-11-13T10:50:57;7.40;;;5.03;;
35126;SDS011;21300;52.006;5.798;2022-11-13T10:53:26;7.38;;;4.35;;
35126;SDS011;21300;52.006;5.798;2022-11-13T10:56:01;7.82;;;4.22;;
35126;SDS011;21300;52.006;5.798;2022-11-13T10:58:35;5.63;;;4.28;;
35126;SDS011;21300;52.006;5.798;2022-11-13T11:01:01;6.63;;;4.78;;
35126;SDS011;21300;52.006;5.798;2022-11-13T11:03:37;6.53;;;4.38;;
35126;SDS011;21300;52.006;5.798;2022-11-13T11:06:13;6.90;;;4.57;;
35126;SDS011;21300;52.006;5.798;2022-11-13T11:08:38;7.93;;;4.43;;
35126;SDS011;21300;52.006;5.798;2022-11-13T11:11:22;7.75;;;4.25;;
35126;SDS011;21300;52.006;5.798;2022-11-13T11:14:23;7.40;;;3.92;;
35126;SDS011;21300;52.006;5.798;2022-11-13T11:16:52;6.70;;;4.13;;
35126;SDS011;21300;52.006;5.798;2022-11-13T11:19:24;8.75;;;4.80;;
35126;SDS011;21300;52.006;5.798;2022-11-13T11:21:53;7.30;;;4.50;;
35126;SDS011;21300;52.006;5.798;2022-11-13T11:24:48;6.93;;;4.47;;
35126;SDS011;21300;52.006;5.798;2022-11-13T11:27:36;7.85;;;4.90;;
35126;SDS011;21300;52.006;5.798;2022-11-13T11:32:49;6.97;;;4.30;;
35126;SDS011;21300;52.006;5.798;2022-11-13T11:35:45;9.57;;;4.88;;
35126;SDS011;21300;52.006;5.798;2022-11-13T11:38:24;8.20;;;4.50;;
35126;SDS011;21300;52.006;5.798;2022-11-13T11:41:13;7.03;;;3.92;;
35126;SDS011;21300;52.006;5.798;2022-11-13T11:43:48;5.80;;;3.80;;
35126;SDS011;21300;52.006;5.798;2022-11-13T11:46:22;5.68;;;3.53;;
35126;SDS011;21300;52.006;5.798;2022-11-13T11:48:49;8.68;;;4.55;;
35126;SDS011;21300;52.006;5.798;2022-11-13T11:56:31;6.43;;;3.92;;
35126;SDS011;21300;52.006;5.798;2022-11-13T12:04:51;6.63;;;4.53;;
35126;SDS011;21300;52.006;5.798;2022-11-13T12:10:25;7.10;;;4.40;;
35126;SDS011;21300;52.006;5.798;2022-11-13T12:21:21;5.88;;;3.60;;
35126;SDS011;21300;52.006;5.798;2022-11-13T12:32:10;5.63;;;3.10;;
35126;SDS011;21300;52.006;5.798;2022-11-13T12:35:27;5.93;;;3.45;;
35126;SDS011;21300;52.006;5.798;2022-11-13T12:40:33;4.88;;;2.72;;
35126;SDS011;21300;52.006;5.798;2022-11-13T12:48:34;3.75;;;2.85;;
35126;SDS011;21300;52.006;5.798;2022-11-13T12:50:58;5.28;;;3.28;;
35126;SDS011;21300;52.006;5.798;2022-11-13T12:53:26;5.10;;;3.10;;
35126;SDS011;21300;52.006;5.798;2022-11-13T12:55:59;3.92;;;2.75;;
35126;SDS011;21300;52.006;5.798;2022-11-13T12:58:29;4.25;;;2.85;;
35126;SDS011;21300;52.006;5.798;2022-11-13T13:01:13;5.70;;;3.35;;
35126;SDS011;21300;52.006;5.798;2022-11-13T13:12:05;7.50;;;3.28;;
35126;SDS011;21300;52.006;5.798;2022-11-13T13:17:35;4.22;;;3.17;;
35126;SDS011;21300;52.006;5.798;2022-11-13T13:20:04;5.15;;;3.30;;
35126;SDS011;21300;52.006;5.798;2022-11-13T13:22:36;5.47;;;3.58;;
35126;SDS011;21300;52.006;5.798;2022-11-13T13:25:21;4.25;;;3.45;;
35126;SDS011;21300;52.006;5.798;2022-11-13T13:27:55;7.32;;;3.97;;
35126;SDS011;21300;52.006;5.798;2022-11-13T13:30:23;5.95;;;3.83;;
35126;SDS011;21300;52.006;5.798;2022-11-13T13:32:56;4.55;;;3.22;;
35126;SDS011;21300;52.006;5.798;2022-11-13T13:38:23;5.80;;;3.67;;
35126;SDS011;21300;52.006;5.798;2022-11-13T13:41:09;6.80;;;3.60;;
35126;SDS011;21300;52.006;5.798;2022-11-13T13:44:18;4.90;;;3.10;;
35126;SDS011;21300;52.006;5.798;2022-11-13T13:47:02;5.35;;;3.17;;
35126;SDS011;21300;52.006;5.798;2022-11-13T13:49:38;5.03;;;3.42;;
35126;SDS011;21300;52.006;5.798;2022-11-13T13:52:04;4.45;;;3.30;;
35126;SDS011;21300;52.006;5.798;2022-11-13T13:54:30;4.28;;;3.20;;
35126;SDS011;21300;52.006;5.798;2022-11-13T13:56:58;5.90;;;3.40;;
35126;SDS011;21300;52.006;5.798;2022-11-13T13:59:31;5.07;;;3.08;;
35126;SDS011;21300;52.006;5.798;2022-11-13T14:02:00;7.60;;;4.43;;
35126;SDS011;21300;52.006;5.798;2022-11-13T14:04:27;6.78;;;3.72;;
35126;SDS011;21300;52.006;5.798;2022-11-13T14:06:58;7.90;;;3.85;;
35126;SDS011;21300;52.006;5.798;2022-11-13T14:09:26;7.88;;;3.15;;
35126;SDS011;21300;52.006;5.798;2022-11-13T14:12:00;6.18;;;2.85;;
35126;SDS011;21300;52.006;5.798;2022-11-13T14:14:41;3.38;;;2.17;;
35126;SDS011;21300;52.006;5.798;2022-11-13T14:17:08;5.13;;;2.85;;
35126;SDS011;21300;52.006;5.798;2022-11-13T14:19:35;4.82;;;2.53;;
35126;SDS011;21300;52.006;5.798;2022-11-13T14:22:01;2.97;;;2.10;;
35126;SDS011;21300;52.006;5.798;2022-11-13T14:26:59;5.05;;;2.05;;
35126;SDS011;21300;52.006;5.798;2022-11-13T14:31:54;4.78;;;2.50;;
35126;SDS011;21300;52.006;5.798;2022-11-13T14:34:26;3.92;;;1.90;;
35126;SDS011;21300;52.006;5.798;2022-11-13T14:36:51;5.45;;;2.38;;
35126;SDS011;21300;52.006;5.798;2022-11-13T14:39:22;4.90;;;2.30;;
35126;SDS011;21300;52.006;5.798;2022-11-13T14:41:55;3.70;;;2.08;;
35126;SDS011;21300;52.006;5.798;2022-11-13T14:44:26;5.18;;;2.40;;
35126;SDS011;21300;52.006;5.798;2022-11-13T14:47:01;4.55;;;2.42;;
35126;SDS011;21300;52.006;5.798;2022-11-13T14:49:43;6.13;;;2.97;;
35126;SDS011;21300;52.006;5.798;2022-11-13T14:52:27;7.35;;;4.10;;
35126;SDS011;21300;52.006;5.798;2022-11-13T14:55:03;5.90;;;4.05;;
35126;SDS011;21300;52.006;5.798;2022-11-13T14:57:30;7.32;;;4.55;;
35126;SDS011;21300;52.006;5.798;2022-11-13T14:59:56;9.63;;;5.72;;
35126;SDS011;21300;52.006;5.798;2022-11-13T15:02:32;8.30;;;5.57;;
35126;SDS011;21300;52.006;5.798;2022-11-13T15:04:58;4.68;;;2.75;;
35126;SDS011;21300;52.006;5.798;2022-11-13T15:07:30;7.30;;;4.05;;
35126;SDS011;21300;52.006;5.798;2022-11-13T15:09:58;6.00;;;3.03;;
35126;SDS011;21300;52.006;5.798;2022-11-13T15:12:24;5.00;;;2.15;;
35126;SDS011;21300;52.006;5.798;2022-11-13T15:14:49;5.35;;;2.97;;
35126;SDS011;21300;52.006;5.798;2022-11-13T15:17:17;7.05;;;2.70;;
35126;SDS011;21300;52.006;5.798;2022-11-13T15:19:44;3.88;;;2.85;;
35126;SDS011;21300;52.006;5.798;2022-11-13T15:22:12;6.28;;;2.97;;
35126;SDS011;21300;52.006;5.798;2022-11-13T15:24:39;5.07;;;2.97;;
35126;SDS011;21300;52.006;5.798;2022-11-13T15:27:05;5.38;;;3.88;;
35126;SDS011;21300;52.006;5.798;2022-11-13T15:29:31;7.40;;;3.30;;
35126;SDS011;21300;52.006;5.798;2022-11-13T15:31:57;6.55;;;3.80;;
35126;SDS011;21300;52.006;5.798;2022-11-13T15:34:23;7.57;;;4.60;;
35126;SDS011;21300;52.006;5.798;2022-11-13T15:36:48;7.18;;;4.03;;
35126;SDS011;21300;52.006;5.798;2022-11-13T15:39:14;6.22;;;3.90;;
35126;SDS011;21300;52.006;5.798;2022-11-13T15:41:39;9.30;;;4.25;;
35126;SDS011;21300;52.006;5.798;2022-11-13T15:44:08;7.25;;;4.70;;
35126;SDS011;21300;52.006;5.798;2022-11-13T15:46:37;7.63;;;5.45;;
35126;SDS011;21300;52.006;5.798;2022-11-13T15:49:02;9.07;;;5.03;;
35126;SDS011;21300;52.006;5.798;2022-11-13T15:51:41;8.57;;;5.60;;
35126;SDS011;21300;52.006;5.798;2022-11-13T15:56:36;7.18;;;5.38;;
35126;SDS011;21300;52.006;5.798;2022-11-13T15:59:01;6.47;;;4.82;;
35126;SDS011;21300;52.006;5.798;2022-11-13T16:01:27;7.95;;;4.82;;
35126;SDS011;21300;52.006;5.798;2022-11-13T16:03:53;11.65;;;7.10;;
35126;SDS011;21300;52.006;5.798;2022-11-13T16:06:20;11.10;;;7.47;;
35126;SDS011;21300;52.006;5.798;2022-11-13T16:08:47;8.95;;;6.47;;
35126;SDS011;21300;52.006;5.798;2022-11-13T16:11:13;8.52;;;6.05;;
35126;SDS011;21300;52.006;5.798;2022-11-13T16:13:41;11.75;;;7.80;;
35126;SDS011;21300;52.006;5.798;2022-11-13T16:16:17;8.73;;;6.55;;